sensor_id;sensor_type;location;lat;lon;timestamp;P1;durP1;ratioP1;P2;durP2;ratioP2
5339;SDS011;2692;48.848;8.924;2023-06-22T00:01:16;6.27;;;3.00;;
5339;SDS011;2692;48.848;8.924;2023-06-22T00:03:41;7.97;;;4.47;;
5339;SDS011;2692;48.848;8.924;2023-06-22T00:06:07;7.30;;;4.80;;
5339;SDS011;2692;48.848;8.924;2023-06-22T00:08:32;11.30;;;3.00;;
5339;SDS011;2692;48.848;8.924;2023-06-22T00:10:57;9.60;;;4.60;;
5339;SDS011;2692;48.848;8.924;2023-06-22T00:13:22;7.20;;;3.60;;
5339;SDS011;2692;48.848;8.924;2023-06-22T00:15:48;12.13;;;3.87;;
5339;SDS011;2692;48.848;8.924;2023-06-22T00:18:13;5.47;;;3.30;;
5339;SDS011;2692;48.848;8.924;2023-06-22T00:20:39;6.90;;;4.10;;
5339;SDS011;2692;48.848;8.924;2023-06-22T00:23:05;5.17;;;3.30;;
5339;SDS011;2692;48.848;8.924;2023-06-22T00:25:42;6.67;;;3.70;;
5339;SDS011;2692;48.848;8.924;2023-06-22T00:28:07;10.30;;;4.13;;
5339;SDS011;2692;48.848;8.924;2023-06-22T00:30:33;6.53;;;3.93;;
5339;SDS011;2692;48.848;8.924;2023-06-22T00:32:59;11.23;;;3.67;;
5339;SDS011;2692;48.848;8.924;2023-06-22T00:35:25;5.57;;;3.73;;
5339;SDS011;2692;48.848;8.924;2023-06-22T00:37:54;6.53;;;4.07;;
5339;SDS011;2692;48.848;8.924;2023-06-22T00:40:25;8.83;;;5.03;;
5339;SDS011;2692;48.848;8.924;2023-06-22T00:42:54;6.33;;;3.43;;
5339;SDS011;2692;48.848;8.924;2023-06-22T00:45:20;4.70;;;3.13;;
5339;SDS011;2692;48.848;8.924;2023-06-22T00:47:47;6.37;;;4.10;;
5339;SDS011;2692;48.848;8.924;2023-06-22T00:50:15;6.93;;;3.97;;
5339;SDS011;2692;48.848;8.924;2023-06-22T00:52:43;9.30;;;4.40;;
5339;SDS011;2692;48.848;8.924;2023-06-22T00:55:11;10.00;;;5.60;;
5339;SDS011;2692;48.848;8.924;2023-06-22T00:57:36;20.53;;;5.00;;
5339;SDS011;2692;48.848;8.924;2023-06-22T01:00:02;12.13;;;4.70;;
5339;SDS011;2692;48.848;8.924;2023-06-22T01:02:31;11.40;;;4.90;;
5339;SDS011;2692;48.848;8.924;2023-06-22T01:04:56;7.10;;;4.13;;
5339;SDS011;2692;48.848;8.924;2023-06-22T01:07:33;6.20;;;3.47;;
5339;SDS011;2692;48.848;8.924;2023-06-22T01:10:21;9.83;;;5.20;;
5339;SDS011;2692;48.848;8.924;2023-06-22T01:13:00;12.50;;;3.80;;
5339;SDS011;2692;48.848;8.924;2023-06-22T01:15:36;9.43;;;4.00;;
5339;SDS011;2692;48.848;8.924;2023-06-22T01:18:03;6.67;;;4.03;;
5339;SDS011;2692;48.848;8.924;2023-06-22T01:20:30;7.70;;;3.60;;
5339;SDS011;2692;48.848;8.924;2023-06-22T01:23:05;6.57;;;4.20;;
5339;SDS011;2692;48.848;8.924;2023-06-22T01:25:43;17.90;;;4.17;;
5339;SDS011;2692;48.848;8.924;2023-06-22T01:30:41;4.70;;;3.40;;
5339;SDS011;2692;48.848;8.924;2023-06-22T01:33:09;6.30;;;3.70;;
5339;SDS011;2692;48.848;8.924;2023-06-22T01:35:36;5.40;;;3.80;;
5339;SDS011;2692;48.848;8.924;2023-06-22T01:38:02;7.77;;;4.17;;
5339;SDS011;2692;48.848;8.924;2023-06-22T01:40:28;6.50;;;3.57;;
5339;SDS011;2692;48.848;8.924;2023-06-22T01:42:54;8.03;;;3.60;;
5339;SDS011;2692;48.848;8.924;2023-06-22T01:45:20;10.80;;;3.80;;
5339;SDS011;2692;48.848;8.924;2023-06-22T01:47:46;6.57;;;3.63;;
5339;SDS011;2692;48.848;8.924;2023-06-22T01:50:12;7.33;;;3.90;;
5339;SDS011;2692;48.848;8.924;2023-06-22T01:52:37;5.60;;;3.07;;
5339;SDS011;2692;48.848;8.924;2023-06-22T01:55:03;5.93;;;4.00;;
5339;SDS011;2692;48.848;8.924;2023-06-22T01:57:29;7.67;;;4.67;;
5339;SDS011;2692;48.848;8.924;2023-06-22T02:00:03;9.83;;;4.37;;
5339;SDS011;2692;48.848;8.924;2023-06-22T02:02:33;12.63;;;3.50;;
5339;SDS011;2692;48.848;8.924;2023-06-22T02:05:06;3.70;;;3.10;;
5339;SDS011;2692;48.848;8.924;2023-06-22T02:07:33;7.97;;;4.67;;
5339;SDS011;2692;48.848;8.924;2023-06-22T02:10:01;4.00;;;2.70;;
5339;SDS011;2692;48.848;8.924;2023-06-22T02:12:27;6.10;;;3.73;;
5339;SDS011;2692;48.848;8.924;2023-06-22T02:14:53;6.67;;;3.70;;
5339;SDS011;2692;48.848;8.924;2023-06-22T02:17:19;10.67;;;4.00;;
5339;SDS011;2692;48.848;8.924;2023-06-22T02:19:44;11.30;;;4.30;;
5339;SDS011;2692;48.848;8.924;2023-06-22T02:22:10;7.30;;;4.33;;
5339;SDS011;2692;48.848;8.924;2023-06-22T02:24:35;7.50;;;3.20;;
5339;SDS011;2692;48.848;8.924;2023-06-22T02:27:01;6.13;;;3.77;;
5339;SDS011;2692;48.848;8.924;2023-06-22T02:29:27;10.30;;;5.50;;
5339;SDS011;2692;48.848;8.924;2023-06-22T02:31:53;10.43;;;4.67;;
5339;SDS011;2692;48.848;8.924;2023-06-22T02:34:18;5.47;;;3.77;;
5339;SDS011;2692;48.848;8.924;2023-06-22T02:36:48;6.10;;;3.83;;
5339;SDS011;2692;48.848;8.924;2023-06-22T02:39:20;8.70;;;4.77;;
5339;SDS011;2692;48.848;8.924;2023-06-22T02:41:47;5.97;;;4.27;;
5339;SDS011;2692;48.848;8.924;2023-06-22T02:44:13;10.47;;;4.43;;
5339;SDS011;2692;48.848;8.924;2023-06-22T02:46:39;7.20;;;3.83;;
5339;SDS011;2692;48.848;8.924;2023-06-22T02:49:04;9.90;;;3.30;;
5339;SDS011;2692;48.848;8.924;2023-06-22T02:51:30;7.30;;;4.50;;
5339;SDS011;2692;48.848;8.924;2023-06-22T02:53:58;6.57;;;4.77;;
5339;SDS011;2692;48.848;8.924;2023-06-22T02:56:24;16.20;;;4.37;;
5339;SDS011;2692;48.848;8.924;2023-06-22T02:58:50;11.33;;;4.60;;
5339;SDS011;2692;48.848;8.924;2023-06-22T03:01:15;7.30;;;4.63;;
5339;SDS011;2692;48.848;8.924;2023-06-22T03:03:40;6.00;;;3.67;;
5339;SDS011;2692;48.848;8.924;2023-06-22T03:06:06;5.83;;;3.60;;
5339;SDS011;2692;48.848;8.924;2023-06-22T03:08:31;17.23;;;5.37;;
5339;SDS011;2692;48.848;8.924;2023-06-22T03:10:56;5.43;;;3.80;;
5339;SDS011;2692;48.848;8.924;2023-06-22T03:13:22;9.40;;;4.63;;
5339;SDS011;2692;48.848;8.924;2023-06-22T03:15:47;8.67;;;4.30;;
5339;SDS011;2692;48.848;8.924;2023-06-22T03:18:12;6.93;;;4.17;;
5339;SDS011;2692;48.848;8.924;2023-06-22T03:20:38;7.67;;;3.70;;
5339;SDS011;2692;48.848;8.924;2023-06-22T03:23:03;15.73;;;4.13;;
5339;SDS011;2692;48.848;8.924;2023-06-22T03:25:29;8.83;;;3.93;;
5339;SDS011;2692;48.848;8.924;2023-06-22T03:27:55;9.80;;;4.80;;
5339;SDS011;2692;48.848;8.924;2023-06-22T03:30:20;10.47;;;4.83;;
5339;SDS011;2692;48.848;8.924;2023-06-22T03:32:46;6.30;;;4.07;;
5339;SDS011;2692;48.848;8.924;2023-06-22T03:35:11;7.80;;;4.10;;
5339;SDS011;2692;48.848;8.924;2023-06-22T03:37:38;6.13;;;3.97;;
5339;SDS011;2692;48.848;8.924;2023-06-22T03:40:04;6.70;;;3.90;;
5339;SDS011;2692;48.848;8.924;2023-06-22T03:42:30;6.77;;;3.90;;
5339;SDS011;2692;48.848;8.924;2023-06-22T03:44:55;5.40;;;3.30;;
5339;SDS011;2692;48.848;8.924;2023-06-22T03:47:21;10.03;;;4.60;;
5339;SDS011;2692;48.848;8.924;2023-06-22T03:49:47;6.17;;;3.60;;
5339;SDS011;2692;48.848;8.924;2023-06-22T03:52:12;8.57;;;3.93;;
5339;SDS011;2692;48.848;8.924;2023-06-22T03:54:37;7.33;;;3.90;;
5339;SDS011;2692;48.848;8.924;2023-06-22T03:57:03;6.43;;;3.73;;
5339;SDS011;2692;48.848;8.924;2023-06-22T03:59:28;5.47;;;3.67;;
5339;SDS011;2692;48.848;8.924;2023-06-22T04:01:54;8.27;;;4.00;;
5339;SDS011;2692;48.848;8.924;2023-06-22T04:04:19;9.87;;;4.07;;
5339;SDS011;2692;48.848;8.924;2023-06-22T04:06:45;7.97;;;3.60;;
5339;SDS011;2692;48.848;8.924;2023-06-22T04:09:10;5.70;;;3.60;;
5339;SDS011;2692;48.848;8.924;2023-06-22T04:11:35;5.67;;;3.23;;
5339;SDS011;2692;48.848;8.924;2023-06-22T04:14:01;6.83;;;3.67;;
5339;SDS011;2692;48.848;8.924;2023-06-22T04:16:26;9.37;;;4.70;;
5339;SDS011;2692;48.848;8.924;2023-06-22T04:18:51;6.97;;;2.90;;
5339;SDS011;2692;48.848;8.924;2023-06-22T04:21:17;7.40;;;3.20;;
5339;SDS011;2692;48.848;8.924;2023-06-22T04:23:44;8.77;;;4.70;;
5339;SDS011;2692;48.848;8.924;2023-06-22T04:26:10;4.37;;;3.20;;
5339;SDS011;2692;48.848;8.924;2023-06-22T04:28:36;9.60;;;4.50;;
5339;SDS011;2692;48.848;8.924;2023-06-22T04:31:01;8.33;;;3.97;;
5339;SDS011;2692;48.848;8.924;2023-06-22T04:33:27;6.23;;;3.27;;
5339;SDS011;2692;48.848;8.924;2023-06-22T04:35:54;11.40;;;3.47;;
5339;SDS011;2692;48.848;8.924;2023-06-22T04:38:21;5.53;;;3.67;;
5339;SDS011;2692;48.848;8.924;2023-06-22T04:40:47;6.43;;;4.43;;
5339;SDS011;2692;48.848;8.924;2023-06-22T04:43:12;8.07;;;3.40;;
5339;SDS011;2692;48.848;8.924;2023-06-22T04:45:37;8.70;;;4.67;;
5339;SDS011;2692;48.848;8.924;2023-06-22T04:48:03;5.87;;;4.37;;
5339;SDS011;2692;48.848;8.924;2023-06-22T04:50:29;9.60;;;5.10;;
5339;SDS011;2692;48.848;8.924;2023-06-22T04:52:54;9.37;;;4.43;;
5339;SDS011;2692;48.848;8.924;2023-06-22T04:55:19;6.37;;;4.07;;
5339;SDS011;2692;48.848;8.924;2023-06-22T04:57:45;8.67;;;5.03;;
5339;SDS011;2692;48.848;8.924;2023-06-22T05:00:20;8.20;;;4.60;;
5339;SDS011;2692;48.848;8.924;2023-06-22T05:02:47;6.10;;;4.00;;
5339;SDS011;2692;48.848;8.924;2023-06-22T05:05:13;5.13;;;3.60;;
5339;SDS011;2692;48.848;8.924;2023-06-22T05:07:49;11.40;;;4.60;;
5339;SDS011;2692;48.848;8.924;2023-06-22T05:10:18;7.67;;;4.40;;
5339;SDS011;2692;48.848;8.924;2023-06-22T05:12:43;4.90;;;3.77;;
5339;SDS011;2692;48.848;8.924;2023-06-22T05:15:09;7.30;;;3.70;;
5339;SDS011;2692;48.848;8.924;2023-06-22T05:17:35;9.37;;;4.10;;
5339;SDS011;2692;48.848;8.924;2023-06-22T05:20:01;7.00;;;4.00;;
5339;SDS011;2692;48.848;8.924;2023-06-22T05:22:27;7.97;;;3.53;;
5339;SDS011;2692;48.848;8.924;2023-06-22T05:24:52;6.67;;;4.67;;
5339;SDS011;2692;48.848;8.924;2023-06-22T05:27:17;15.17;;;4.93;;
5339;SDS011;2692;48.848;8.924;2023-06-22T05:29:43;9.63;;;4.27;;
5339;SDS011;2692;48.848;8.924;2023-06-22T05:32:08;9.60;;;4.30;;
5339;SDS011;2692;48.848;8.924;2023-06-22T05:34:33;8.80;;;5.20;;
5339;SDS011;2692;48.848;8.924;2023-06-22T05:36:59;8.47;;;4.67;;
5339;SDS011;2692;48.848;8.924;2023-06-22T05:39:24;17.50;;;5.13;;
5339;SDS011;2692;48.848;8.924;2023-06-22T05:41:50;8.30;;;4.23;;
5339;SDS011;2692;48.848;8.924;2023-06-22T05:44:16;24.23;;;4.67;;
5339;SDS011;2692;48.848;8.924;2023-06-22T05:46:42;6.87;;;4.47;;
5339;SDS011;2692;48.848;8.924;2023-06-22T05:49:11;9.23;;;4.73;;
5339;SDS011;2692;48.848;8.924;2023-06-22T05:51:37;7.43;;;3.97;;
5339;SDS011;2692;48.848;8.924;2023-06-22T05:54:02;7.70;;;4.43;;
5339;SDS011;2692;48.848;8.924;2023-06-22T05:56:28;7.97;;;4.53;;
5339;SDS011;2692;48.848;8.924;2023-06-22T05:58:53;8.63;;;4.23;;
5339;SDS011;2692;48.848;8.924;2023-06-22T06:01:18;6.87;;;4.10;;
5339;SDS011;2692;48.848;8.924;2023-06-22T06:03:44;7.90;;;4.40;;
5339;SDS011;2692;48.848;8.924;2023-06-22T06:06:09;8.97;;;5.33;;
5339;SDS011;2692;48.848;8.924;2023-06-22T06:08:36;5.73;;;3.60;;
5339;SDS011;2692;48.848;8.924;2023-06-22T06:11:02;9.10;;;4.30;;
5339;SDS011;2692;48.848;8.924;2023-06-22T06:13:27;10.37;;;5.83;;
5339;SDS011;2692;48.848;8.924;2023-06-22T06:15:52;6.37;;;4.13;;
5339;SDS011;2692;48.848;8.924;2023-06-22T06:18:20;47.17;;;5.80;;
5339;SDS011;2692;48.848;8.924;2023-06-22T06:20:45;8.83;;;4.57;;
5339;SDS011;2692;48.848;8.924;2023-06-22T06:23:10;10.23;;;4.07;;
5339;SDS011;2692;48.848;8.924;2023-06-22T06:25:35;6.33;;;4.33;;
5339;SDS011;2692;48.848;8.924;2023-06-22T06:28:01;12.53;;;5.07;;
5339;SDS011;2692;48.848;8.924;2023-06-22T06:30:26;10.80;;;4.23;;
5339;SDS011;2692;48.848;8.924;2023-06-22T06:32:51;6.40;;;4.60;;
5339;SDS011;2692;48.848;8.924;2023-06-22T06:35:17;8.50;;;5.10;;
5339;SDS011;2692;48.848;8.924;2023-06-22T06:37:43;14.47;;;4.70;;
5339;SDS011;2692;48.848;8.924;2023-06-22T06:40:10;12.73;;;5.30;;
5339;SDS011;2692;48.848;8.924;2023-06-22T06:42:36;6.80;;;4.27;;
5339;SDS011;2692;48.848;8.924;2023-06-22T06:45:05;13.13;;;4.40;;
5339;SDS011;2692;48.848;8.924;2023-06-22T06:47:31;13.97;;;4.43;;
5339;SDS011;2692;48.848;8.924;2023-06-22T06:49:57;7.77;;;4.57;;
5339;SDS011;2692;48.848;8.924;2023-06-22T06:52:22;8.97;;;3.97;;
5339;SDS011;2692;48.848;8.924;2023-06-22T06:54:47;8.33;;;4.47;;
5339;SDS011;2692;48.848;8.924;2023-06-22T06:57:12;9.30;;;4.10;;
5339;SDS011;2692;48.848;8.924;2023-06-22T06:59:38;6.87;;;3.67;;
5339;SDS011;2692;48.848;8.924;2023-06-22T07:02:04;4.43;;;3.20;;
5339;SDS011;2692;48.848;8.924;2023-06-22T07:04:29;7.60;;;4.03;;
5339;SDS011;2692;48.848;8.924;2023-06-22T07:06:55;8.30;;;3.10;;
5339;SDS011;2692;48.848;8.924;2023-06-22T07:09:20;4.70;;;3.03;;
5339;SDS011;2692;48.848;8.924;2023-06-22T07:11:45;7.13;;;2.80;;
5339;SDS011;2692;48.848;8.924;2023-06-22T07:14:11;5.97;;;3.23;;
5339;SDS011;2692;48.848;8.924;2023-06-22T07:16:36;5.43;;;3.00;;
5339;SDS011;2692;48.848;8.924;2023-06-22T07:19:01;5.47;;;2.90;;
5339;SDS011;2692;48.848;8.924;2023-06-22T07:21:26;5.57;;;2.80;;
5339;SDS011;2692;48.848;8.924;2023-06-22T07:23:52;6.13;;;3.23;;
5339;SDS011;2692;48.848;8.924;2023-06-22T07:26:17;14.07;;;3.53;;
5339;SDS011;2692;48.848;8.924;2023-06-22T07:28:43;9.70;;;3.47;;
5339;SDS011;2692;48.848;8.924;2023-06-22T07:31:08;6.07;;;3.37;;
5339;SDS011;2692;48.848;8.924;2023-06-22T07:33:33;10.73;;;2.50;;
5339;SDS011;2692;48.848;8.924;2023-06-22T07:35:58;7.67;;;3.10;;
5339;SDS011;2692;48.848;8.924;2023-06-22T07:38:24;5.53;;;3.37;;
5339;SDS011;2692;48.848;8.924;2023-06-22T07:40:49;5.67;;;2.03;;
5339;SDS011;2692;48.848;8.924;2023-06-22T07:43:15;5.40;;;2.67;;
5339;SDS011;2692;48.848;8.924;2023-06-22T07:45:41;5.33;;;3.30;;
5339;SDS011;2692;48.848;8.924;2023-06-22T07:48:16;6.93;;;3.13;;
5339;SDS011;2692;48.848;8.924;2023-06-22T07:50:42;7.40;;;2.90;;
5339;SDS011;2692;48.848;8.924;2023-06-22T07:53:07;8.63;;;3.40;;
5339;SDS011;2692;48.848;8.924;2023-06-22T07:55:32;7.60;;;2.40;;
5339;SDS011;2692;48.848;8.924;2023-06-22T07:57:58;4.87;;;2.80;;
5339;SDS011;2692;48.848;8.924;2023-06-22T08:00:23;6.53;;;3.90;;
5339;SDS011;2692;48.848;8.924;2023-06-22T08:02:48;6.70;;;3.00;;
5339;SDS011;2692;48.848;8.924;2023-06-22T08:05:14;5.50;;;3.33;;
5339;SDS011;2692;48.848;8.924;2023-06-22T08:07:40;4.37;;;2.77;;
5339;SDS011;2692;48.848;8.924;2023-06-22T08:10:05;4.70;;;2.63;;
5339;SDS011;2692;48.848;8.924;2023-06-22T08:12:31;5.03;;;3.50;;
5339;SDS011;2692;48.848;8.924;2023-06-22T08:14:56;6.57;;;2.90;;
5339;SDS011;2692;48.848;8.924;2023-06-22T08:17:23;5.60;;;3.00;;
5339;SDS011;2692;48.848;8.924;2023-06-22T08:19:49;6.50;;;3.50;;
5339;SDS011;2692;48.848;8.924;2023-06-22T08:22:15;4.23;;;2.90;;
5339;SDS011;2692;48.848;8.924;2023-06-22T08:24:41;7.17;;;3.37;;
5339;SDS011;2692;48.848;8.924;2023-06-22T08:27:09;4.93;;;2.70;;
5339;SDS011;2692;48.848;8.924;2023-06-22T08:29:36;6.70;;;2.80;;
5339;SDS011;2692;48.848;8.924;2023-06-22T08:32:02;4.10;;;2.90;;
5339;SDS011;2692;48.848;8.924;2023-06-22T08:34:27;5.33;;;2.60;;
5339;SDS011;2692;48.848;8.924;2023-06-22T08:36:52;9.10;;;3.80;;
5339;SDS011;2692;48.848;8.924;2023-06-22T08:39:19;4.47;;;2.80;;
5339;SDS011;2692;48.848;8.924;2023-06-22T08:41:45;3.67;;;2.10;;
5339;SDS011;2692;48.848;8.924;2023-06-22T08:44:11;5.80;;;2.97;;
5339;SDS011;2692;48.848;8.924;2023-06-22T08:46:36;6.00;;;2.60;;
5339;SDS011;2692;48.848;8.924;2023-06-22T08:49:03;3.90;;;2.07;;
5339;SDS011;2692;48.848;8.924;2023-06-22T08:51:29;6.50;;;2.03;;
5339;SDS011;2692;48.848;8.924;2023-06-22T08:53:54;6.33;;;2.87;;
5339;SDS011;2692;48.848;8.924;2023-06-22T08:56:19;5.60;;;2.80;;
5339;SDS011;2692;48.848;8.924;2023-06-22T08:58:45;9.53;;;2.70;;
5339;SDS011;2692;48.848;8.924;2023-06-22T09:01:10;7.57;;;3.10;;
5339;SDS011;2692;48.848;8.924;2023-06-22T09:03:35;9.07;;;3.10;;
5339;SDS011;2692;48.848;8.924;2023-06-22T09:06:02;8.13;;;3.70;;
5339;SDS011;2692;48.848;8.924;2023-06-22T09:08:27;4.23;;;2.30;;
5339;SDS011;2692;48.848;8.924;2023-06-22T09:10:53;12.90;;;2.90;;
5339;SDS011;2692;48.848;8.924;2023-06-22T09:13:18;11.50;;;2.83;;
5339;SDS011;2692;48.848;8.924;2023-06-22T09:15:43;4.67;;;2.20;;
5339;SDS011;2692;48.848;8.924;2023-06-22T09:18:12;4.63;;;2.40;;
5339;SDS011;2692;48.848;8.924;2023-06-22T09:20:38;6.47;;;2.90;;
5339;SDS011;2692;48.848;8.924;2023-06-22T09:23:04;10.13;;;3.10;;
5339;SDS011;2692;48.848;8.924;2023-06-22T09:25:29;9.17;;;3.23;;
5339;SDS011;2692;48.848;8.924;2023-06-22T09:27:54;14.27;;;3.30;;
5339;SDS011;2692;48.848;8.924;2023-06-22T09:30:19;3.70;;;2.30;;
5339;SDS011;2692;48.848;8.924;2023-06-22T09:32:45;4.37;;;2.47;;
5339;SDS011;2692;48.848;8.924;2023-06-22T09:35:10;7.23;;;3.17;;
5339;SDS011;2692;48.848;8.924;2023-06-22T09:37:37;7.03;;;3.03;;
5339;SDS011;2692;48.848;8.924;2023-06-22T09:40:03;6.07;;;3.63;;
5339;SDS011;2692;48.848;8.924;2023-06-22T09:42:34;16.23;;;3.40;;
5339;SDS011;2692;48.848;8.924;2023-06-22T09:45:00;9.23;;;2.50;;
5339;SDS011;2692;48.848;8.924;2023-06-22T09:47:26;10.23;;;3.13;;
5339;SDS011;2692;48.848;8.924;2023-06-22T09:49:52;4.83;;;2.90;;
5339;SDS011;2692;48.848;8.924;2023-06-22T09:52:17;10.07;;;3.90;;
5339;SDS011;2692;48.848;8.924;2023-06-22T09:54:42;4.30;;;2.47;;
5339;SDS011;2692;48.848;8.924;2023-06-22T09:57:07;7.00;;;2.87;;
5339;SDS011;2692;48.848;8.924;2023-06-22T09:59:33;4.03;;;2.57;;
5339;SDS011;2692;48.848;8.924;2023-06-22T10:01:58;6.53;;;2.70;;
5339;SDS011;2692;48.848;8.924;2023-06-22T10:04:24;6.37;;;3.00;;
5339;SDS011;2692;48.848;8.924;2023-06-22T10:06:50;7.63;;;4.33;;
5339;SDS011;2692;48.848;8.924;2023-06-22T10:09:15;6.00;;;2.47;;
5339;SDS011;2692;48.848;8.924;2023-06-22T10:11:41;6.90;;;3.60;;
5339;SDS011;2692;48.848;8.924;2023-06-22T10:14:06;5.13;;;3.00;;
5339;SDS011;2692;48.848;8.924;2023-06-22T10:16:31;7.60;;;3.27;;
5339;SDS011;2692;48.848;8.924;2023-06-22T10:18:57;5.27;;;2.87;;
5339;SDS011;2692;48.848;8.924;2023-06-22T10:21:22;4.67;;;2.73;;
5339;SDS011;2692;48.848;8.924;2023-06-22T10:23:47;5.70;;;3.07;;
5339;SDS011;2692;48.848;8.924;2023-06-22T10:26:13;4.90;;;2.90;;
5339;SDS011;2692;48.848;8.924;2023-06-22T10:28:38;7.23;;;3.10;;
5339;SDS011;2692;48.848;8.924;2023-06-22T10:31:03;26.87;;;3.50;;
5339;SDS011;2692;48.848;8.924;2023-06-22T10:33:29;5.33;;;2.90;;
5339;SDS011;2692;48.848;8.924;2023-06-22T10:35:54;5.17;;;2.90;;
5339;SDS011;2692;48.848;8.924;2023-06-22T10:38:20;9.00;;;3.40;;
5339;SDS011;2692;48.848;8.924;2023-06-22T10:40:45;6.33;;;3.43;;
5339;SDS011;2692;48.848;8.924;2023-06-22T10:43:11;9.50;;;3.53;;
5339;SDS011;2692;48.848;8.924;2023-06-22T10:45:36;4.13;;;2.60;;
5339;SDS011;2692;48.848;8.924;2023-06-22T10:48:01;10.03;;;2.73;;
5339;SDS011;2692;48.848;8.924;2023-06-22T10:50:27;12.43;;;2.63;;
5339;SDS011;2692;48.848;8.924;2023-06-22T10:52:52;4.77;;;2.87;;
5339;SDS011;2692;48.848;8.924;2023-06-22T10:55:18;4.03;;;2.37;;
5339;SDS011;2692;48.848;8.924;2023-06-22T10:57:44;6.03;;;3.20;;
5339;SDS011;2692;48.848;8.924;2023-06-22T11:00:12;8.60;;;3.10;;
5339;SDS011;2692;48.848;8.924;2023-06-22T11:02:38;8.70;;;3.90;;
5339;SDS011;2692;48.848;8.924;2023-06-22T11:05:03;7.30;;;3.20;;
5339;SDS011;2692;48.848;8.924;2023-06-22T11:07:29;12.93;;;3.60;;
5339;SDS011;2692;48.848;8.924;2023-06-22T11:09:54;11.43;;;3.10;;
5339;SDS011;2692;48.848;8.924;2023-06-22T11:12:20;4.90;;;2.50;;
5339;SDS011;2692;48.848;8.924;2023-06-22T11:14:45;5.20;;;2.60;;
5339;SDS011;2692;48.848;8.924;2023-06-22T11:17:10;6.47;;;3.67;;
5339;SDS011;2692;48.848;8.924;2023-06-22T11:19:35;14.30;;;3.27;;
5339;SDS011;2692;48.848;8.924;2023-06-22T11:22:01;8.60;;;3.20;;
5339;SDS011;2692;48.848;8.924;2023-06-22T11:24:26;5.23;;;3.23;;
5339;SDS011;2692;48.848;8.924;2023-06-22T11:26:52;5.10;;;2.50;;
5339;SDS011;2692;48.848;8.924;2023-06-22T11:29:17;6.17;;;3.00;;
5339;SDS011;2692;48.848;8.924;2023-06-22T11:31:42;5.73;;;3.03;;
5339;SDS011;2692;48.848;8.924;2023-06-22T11:34:08;7.20;;;3.57;;
5339;SDS011;2692;48.848;8.924;2023-06-22T11:36:34;6.77;;;2.60;;
5339;SDS011;2692;48.848;8.924;2023-06-22T11:39:00;8.40;;;3.60;;
5339;SDS011;2692;48.848;8.924;2023-06-22T11:41:26;6.43;;;3.80;;
5339;SDS011;2692;48.848;8.924;2023-06-22T11:43:51;5.97;;;3.10;;
5339;SDS011;2692;48.848;8.924;2023-06-22T11:46:16;10.63;;;3.40;;
5339;SDS011;2692;48.848;8.924;2023-06-22T11:48:41;8.60;;;3.00;;
5339;SDS011;2692;48.848;8.924;2023-06-22T11:51:07;5.30;;;2.90;;
5339;SDS011;2692;48.848;8.924;2023-06-22T11:53:33;7.40;;;3.90;;
5339;SDS011;2692;48.848;8.924;2023-06-22T11:55:59;11.10;;;3.20;;
5339;SDS011;2692;48.848;8.924;2023-06-22T11:58:25;7.20;;;3.03;;
5339;SDS011;2692;48.848;8.924;2023-06-22T12:00:50;7.20;;;3.30;;
5339;SDS011;2692;48.848;8.924;2023-06-22T12:03:16;5.23;;;3.33;;
5339;SDS011;2692;48.848;8.924;2023-06-22T12:05:42;6.27;;;3.40;;
5339;SDS011;2692;48.848;8.924;2023-06-22T12:08:07;14.90;;;4.10;;
5339;SDS011;2692;48.848;8.924;2023-06-22T12:10:32;9.50;;;4.03;;
5339;SDS011;2692;48.848;8.924;2023-06-22T12:12:58;7.30;;;3.60;;
5339;SDS011;2692;48.848;8.924;2023-06-22T12:15:24;8.80;;;3.43;;
5339;SDS011;2692;48.848;8.924;2023-06-22T12:17:50;6.47;;;3.33;;
5339;SDS011;2692;48.848;8.924;2023-06-22T12:20:15;6.47;;;2.83;;
5339;SDS011;2692;48.848;8.924;2023-06-22T12:22:41;6.63;;;3.47;;
5339;SDS011;2692;48.848;8.924;2023-06-22T12:25:07;5.13;;;2.93;;
5339;SDS011;2692;48.848;8.924;2023-06-22T12:27:33;6.40;;;3.00;;
5339;SDS011;2692;48.848;8.924;2023-06-22T12:29:59;10.07;;;3.40;;
5339;SDS011;2692;48.848;8.924;2023-06-22T12:32:24;7.60;;;3.67;;
5339;SDS011;2692;48.848;8.924;2023-06-22T12:34:50;37.73;;;3.70;;
5339;SDS011;2692;48.848;8.924;2023-06-22T12:37:15;6.30;;;3.47;;
5339;SDS011;2692;48.848;8.924;2023-06-22T12:39:41;7.50;;;3.47;;
5339;SDS011;2692;48.848;8.924;2023-06-22T12:42:06;7.87;;;3.60;;
5339;SDS011;2692;48.848;8.924;2023-06-22T12:44:33;7.80;;;3.77;;
5339;SDS011;2692;48.848;8.924;2023-06-22T12:46:59;8.50;;;3.57;;
5339;SDS011;2692;48.848;8.924;2023-06-22T12:49:24;7.00;;;3.87;;
5339;SDS011;2692;48.848;8.924;2023-06-22T12:51:50;6.20;;;3.53;;
5339;SDS011;2692;48.848;8.924;2023-06-22T12:54:15;6.37;;;3.40;;
5339;SDS011;2692;48.848;8.924;2023-06-22T12:56:40;9.00;;;4.27;;
5339;SDS011;2692;48.848;8.924;2023-06-22T12:59:08;6.60;;;3.60;;
5339;SDS011;2692;48.848;8.924;2023-06-22T13:01:33;17.53;;;4.03;;
5339;SDS011;2692;48.848;8.924;2023-06-22T13:03:59;5.53;;;3.30;;
5339;SDS011;2692;48.848;8.924;2023-06-22T13:06:24;8.03;;;2.60;;
5339;SDS011;2692;48.848;8.924;2023-06-22T13:08:50;10.03;;;4.20;;
5339;SDS011;2692;48.848;8.924;2023-06-22T13:11:15;5.53;;;3.10;;
5339;SDS011;2692;48.848;8.924;2023-06-22T13:13:41;5.57;;;3.07;;
5339;SDS011;2692;48.848;8.924;2023-06-22T13:16:06;5.33;;;3.27;;
5339;SDS011;2692;48.848;8.924;2023-06-22T13:18:32;5.93;;;3.77;;
5339;SDS011;2692;48.848;8.924;2023-06-22T13:20:58;10.40;;;3.93;;
5339;SDS011;2692;48.848;8.924;2023-06-22T13:23:25;8.10;;;3.87;;
5339;SDS011;2692;48.848;8.924;2023-06-22T13:25:50;8.63;;;3.97;;
5339;SDS011;2692;48.848;8.924;2023-06-22T13:28:15;6.17;;;3.33;;
5339;SDS011;2692;48.848;8.924;2023-06-22T13:30:41;13.87;;;3.63;;
5339;SDS011;2692;48.848;8.924;2023-06-22T13:33:07;11.80;;;3.10;;
5339;SDS011;2692;48.848;8.924;2023-06-22T13:35:32;5.30;;;2.57;;
5339;SDS011;2692;48.848;8.924;2023-06-22T13:37:57;6.60;;;3.00;;
5339;SDS011;2692;48.848;8.924;2023-06-22T13:40:23;8.03;;;4.03;;
5339;SDS011;2692;48.848;8.924;2023-06-22T13:42:48;9.00;;;4.00;;
5339;SDS011;2692;48.848;8.924;2023-06-22T13:45:13;6.40;;;3.40;;
5339;SDS011;2692;48.848;8.924;2023-06-22T13:47:41;7.20;;;3.10;;
5339;SDS011;2692;48.848;8.924;2023-06-22T13:50:06;18.07;;;4.00;;
5339;SDS011;2692;48.848;8.924;2023-06-22T13:52:32;10.43;;;3.50;;
5339;SDS011;2692;48.848;8.924;2023-06-22T13:54:57;6.90;;;2.60;;
5339;SDS011;2692;48.848;8.924;2023-06-22T13:57:23;9.73;;;3.10;;
5339;SDS011;2692;48.848;8.924;2023-06-22T13:59:48;11.27;;;3.50;;
5339;SDS011;2692;48.848;8.924;2023-06-22T14:02:13;9.23;;;4.37;;
5339;SDS011;2692;48.848;8.924;2023-06-22T14:04:39;4.70;;;2.53;;
5339;SDS011;2692;48.848;8.924;2023-06-22T14:07:04;7.63;;;3.30;;
5339;SDS011;2692;48.848;8.924;2023-06-22T14:09:29;5.27;;;3.20;;
5339;SDS011;2692;48.848;8.924;2023-06-22T14:11:55;5.63;;;3.00;;
5339;SDS011;2692;48.848;8.924;2023-06-22T14:14:21;4.60;;;2.53;;
5339;SDS011;2692;48.848;8.924;2023-06-22T14:16:46;5.10;;;2.60;;
5339;SDS011;2692;48.848;8.924;2023-06-22T14:19:12;3.67;;;2.00;;
5339;SDS011;2692;48.848;8.924;2023-06-22T14:21:38;10.13;;;2.63;;
5339;SDS011;2692;48.848;8.924;2023-06-22T14:24:03;8.10;;;1.93;;
5339;SDS011;2692;48.848;8.924;2023-06-22T14:26:28;4.43;;;2.23;;
5339;SDS011;2692;48.848;8.924;2023-06-22T14:28:53;4.47;;;2.00;;
5339;SDS011;2692;48.848;8.924;2023-06-22T14:31:19;3.33;;;1.80;;
5339;SDS011;2692;48.848;8.924;2023-06-22T14:33:47;4.37;;;1.97;;
5339;SDS011;2692;48.848;8.924;2023-06-22T14:36:14;4.30;;;2.17;;
5339;SDS011;2692;48.848;8.924;2023-06-22T14:38:39;6.00;;;2.20;;
5339;SDS011;2692;48.848;8.924;2023-06-22T14:41:05;4.80;;;1.53;;
5339;SDS011;2692;48.848;8.924;2023-06-22T14:43:30;10.60;;;2.53;;
5339;SDS011;2692;48.848;8.924;2023-06-22T14:45:55;11.80;;;2.60;;
5339;SDS011;2692;48.848;8.924;2023-06-22T14:48:21;5.03;;;2.13;;
5339;SDS011;2692;48.848;8.924;2023-06-22T14:50:46;3.93;;;2.07;;
5339;SDS011;2692;48.848;8.924;2023-06-22T14:53:11;10.70;;;2.50;;
5339;SDS011;2692;48.848;8.924;2023-06-22T14:55:37;7.03;;;2.40;;
5339;SDS011;2692;48.848;8.924;2023-06-22T14:58:02;3.73;;;1.93;;
5339;SDS011;2692;48.848;8.924;2023-06-22T15:00:27;4.57;;;1.90;;
5339;SDS011;2692;48.848;8.924;2023-06-22T15:02:53;3.70;;;1.80;;
5339;SDS011;2692;48.848;8.924;2023-06-22T15:05:18;6.20;;;2.00;;
5339;SDS011;2692;48.848;8.924;2023-06-22T15:07:43;5.40;;;1.73;;